This demonstration page uses our WeatherBlox Daily Observations layout. Learn more.

41.55636, -103.73856

Hourly Observations for August 23, 2019

Temp ( °F °C ) Dew Point ( °F °C ) Humidity (%) Winds ( mph kmh ) Pressure ( in mb ) Visibility ( mi km ) Precip ( " mm )
1:59 am 01:59 Mostly Clear 70 20.9 46 7.7 43 43 S 26 43 29.78 1009 10 16.0934 0 0
2:58 am 02:58 Mostly Cloudy 71 21.9 43 6.3 36 36 S 26 43 29.78 1009 10 16.0934 0 0
3:59 am 03:59 Clear 69 20.5 45 7.3 43 43 S 28 44 29.78 1008 10 16.0934 0 0
4:58 am 04:58 Clear 67 19.7 47 8.2 48 48 S 30 48 29.77 1008 10 16.0934 0 0
5:58 am 05:58 Clear 67 19.6 52 11 58 58 S 26 43 29.78 1008 10 16.0934 0 0
6:58 am 06:58 Mostly Cloudy 68 20 56 13.6 67 67 SSW 26 43 29.76 1008 10 16.0934 0 0
7:58 am 07:58 Mostly Cloudy 65 18.1 56 13.6 75 75 E 9 15 29.8 1009 10 16.0934 0 0
8:58 am 08:58 Mostly Cloudy 64 17.9 57 14.1 79 79 SE 7 11 29.81 1009 10 16.0934 0 0
9:58 am 09:58 Mostly Cloudy 64 17.5 58 14.7 84 84 SSE 13 20 29.81 1010 10 16.0934 0 0
10:58 am 10:58 Mostly Cloudy 64 17.7 59 14.8 83 83 SSE 6 9 29.81 1010 10 16.0934 0 0
11:58 am 11:58 Mostly Cloudy 65 18.4 58 14.6 79 79 SE 8 13 29.85 1011 10 16.0934 0 0
12:58 pm 12:58 Mostly Cloudy 65 18.5 58 14.2 76 76 SSE 13 20 29.87 1011 10 16.0934 0 0
1:58 pm 13:58 Mostly Sunny 67 19.7 58 14.6 73 73 S 13 20 29.86 1011 10 16.0934 0 0
2:58 pm 14:58 Mostly Sunny 68 20 59 15 73 73 S 15 24 29.87 1012 10 16.0934 0 0
3:58 pm 15:58 Mostly Sunny 69 20.4 60 15.3 73 73 S 10 17 29.91 1013 10 16.0934 0 0
4:58 pm 16:58 Mostly Sunny 72 22.3 60 15.5 66 66 S 14 22 29.9 1013 10 16.0934 0 0
5:58 pm 17:58 Mostly Sunny 74 23.6 61 16.2 63 63 S 15 24 29.9 1012 10 16.0934 0 0
7:59 pm 19:59 Mostly Sunny 78 25.7 61 16.3 56 56 S 13 20 29.89 1012 10 16.0934 0 0
8:58 pm 20:58 Partly Cloudy 80 26.7 62 16.6 54 54 SSE 21 33 29.88 1012 10 16.0934 0 0
9:58 pm 21:58 Mostly Sunny 75 24.1 62 16.7 63 63 SSE 25 41 29.87 1012 10 16.0934 0 0
10:58 pm 22:58 Sunny 75 23.8 60 15.5 60 60 SSE 26 43 29.83 1010 10 16.0934 0 0
11:58 pm 23:58 Partly Cloudy with Nearby Thunderstorms 71 21.8 60 15.7 68 68 SSE 8 13 29.9 1013 10 16.0934 0 0

Powered by AerisWeather